createdAt,value
2023-02-04T00:00:20.338Z,8.30
2023-02-04T00:02:48.256Z,8.30
2023-02-04T00:05:18.162Z,8.30
2023-02-04T00:07:46.044Z,8.30
2023-02-04T00:10:14.138Z,8.30
2023-02-04T00:12:42.038Z,8.30
2023-02-04T00:15:10.763Z,8.30
2023-02-04T00:17:40.331Z,8.30
2023-02-04T00:20:08.695Z,8.30
2023-02-04T00:22:36.687Z,8.30
2023-02-04T00:25:04.702Z,8.30
2023-02-04T00:27:32.599Z,8.30
2023-02-04T00:30:00.471Z,8.30
2023-02-04T00:32:28.315Z,8.30
2023-02-04T00:34:57.561Z,8.30
2023-02-04T00:37:25.556Z,8.30
2023-02-04T00:39:53.449Z,8.30
2023-02-04T00:42:21.328Z,8.40
2023-02-04T00:44:49.259Z,8.30
2023-02-04T00:47:17.147Z,8.30
2023-02-04T00:49:44.997Z,8.40
2023-02-04T00:52:14.268Z,8.40
2023-02-04T00:54:42.189Z,8.40
2023-02-04T00:57:10.037Z,8.40
2023-02-04T00:59:37.926Z,8.40
2023-02-04T01:02:05.816Z,8.40
2023-02-04T01:04:33.983Z,8.30
2023-02-04T01:07:01.967Z,8.30
2023-02-04T01:09:31.257Z,8.40
2023-02-04T01:11:59.171Z,8.30
2023-02-04T01:14:27.029Z,8.30
2023-02-04T01:16:54.899Z,8.30
2023-02-04T01:19:22.788Z,8.30
2023-02-04T01:21:50.607Z,8.30
2023-02-04T01:24:18.557Z,8.30
2023-02-04T01:26:47.754Z,8.30
2023-02-04T01:29:15.711Z,8.30
2023-02-04T01:31:43.665Z,8.30
2023-02-04T01:34:11.613Z,8.30
2023-02-04T01:36:39.446Z,8.30
2023-02-04T01:39:07.403Z,8.30
2023-02-04T01:41:35.367Z,8.30
2023-02-04T01:44:04.729Z,8.30
2023-02-04T01:46:34.334Z,8.30
2023-02-04T01:49:02.669Z,8.30
2023-02-04T01:51:32.071Z,8.30
2023-02-04T01:54:00.767Z,8.30
2023-02-04T01:56:31.364Z,8.30
2023-02-04T01:58:59.769Z,8.30
2023-02-04T02:01:41.768Z,8.30
2023-02-04T02:04:10.107Z,8.30
2023-02-04T02:06:41.214Z,8.30
2023-02-04T02:09:09.278Z,8.40
2023-02-04T02:11:37.397Z,8.30
2023-02-04T02:14:05.955Z,8.30
2023-02-04T02:16:34.299Z,8.30
2023-02-04T02:19:03.790Z,8.30
2023-02-04T02:21:38.111Z,8.30
2023-02-04T02:24:27.230Z,8.30
2023-02-04T02:26:56.129Z,8.30
2023-02-04T02:29:24.854Z,8.30
2023-02-04T02:31:53.024Z,8.40
2023-02-04T02:34:20.966Z,8.30
2023-02-04T02:36:48.954Z,8.40
2023-02-04T02:39:18.428Z,8.30
2023-02-04T02:41:46.422Z,8.30
2023-02-04T02:44:15.890Z,8.40
2023-02-04T02:46:43.821Z,8.30
2023-02-04T02:49:15.558Z,8.30
2023-02-04T02:51:43.813Z,8.40
2023-02-04T02:54:24.120Z,8.40
2023-02-04T02:56:52.543Z,8.40
2023-02-04T02:59:20.939Z,8.40
2023-02-04T03:01:52.392Z,8.40
2023-02-04T03:04:22.408Z,8.40
2023-02-04T03:06:51.601Z,8.40
2023-02-04T03:09:20.343Z,8.40
2023-02-04T03:11:50.094Z,8.40
2023-02-04T03:14:18.499Z,8.40
2023-02-04T03:16:48.323Z,8.40
2023-02-04T03:19:16.363Z,8.40
2023-02-04T03:21:44.843Z,8.40
2023-02-04T03:24:13.032Z,8.30
2023-02-04T03:26:41.078Z,8.40
2023-02-04T03:29:11.160Z,8.40
2023-02-04T03:31:39.229Z,8.30
2023-02-04T03:34:07.436Z,8.30
2023-02-04T03:36:36.492Z,8.30
2023-02-04T03:39:04.909Z,8.40
2023-02-04T03:41:32.815Z,8.40
2023-02-04T03:44:00.745Z,8.40
2023-02-04T03:46:29.989Z,8.40
2023-02-04T03:48:57.977Z,8.40
2023-02-04T03:51:26.024Z,8.30
2023-02-04T03:53:54.003Z,8.30
2023-02-04T03:56:21.839Z,8.30
2023-02-04T03:58:49.837Z,8.30
2023-02-04T04:01:17.806Z,8.30
2023-02-04T04:03:47.054Z,8.30
2023-02-04T04:06:14.952Z,8.30
2023-02-04T04:08:42.876Z,8.30
2023-02-04T04:11:10.766Z,8.30
2023-02-04T04:13:38.816Z,8.30
2023-02-04T04:16:07.662Z,8.30
2023-02-04T04:18:35.769Z,8.30
2023-02-04T04:21:05.380Z,8.30
2023-02-04T04:23:33.381Z,8.20
2023-02-04T04:26:01.213Z,8.20
2023-02-04T04:28:29.109Z,8.20
2023-02-04T04:30:57.141Z,8.20
2023-02-04T04:33:25.091Z,8.20
2023-02-04T04:35:53.013Z,8.20
2023-02-04T04:38:22.238Z,8.20
2023-02-04T04:40:50.072Z,8.20
2023-02-04T04:43:17.960Z,8.10
2023-02-04T04:45:45.873Z,8.10
2023-02-04T04:48:13.784Z,8.10
2023-02-04T04:50:41.724Z,8.10
2023-02-04T04:53:11.308Z,8.10
2023-02-04T04:55:40.724Z,8.00
2023-02-04T04:58:09.330Z,8.00
2023-02-04T05:00:37.352Z,8.00
2023-02-04T05:03:08.329Z,8.00
2023-02-04T05:05:39.953Z,8.00
2023-02-04T05:08:10.958Z,8.00
2023-02-04T05:10:40.239Z,8.00
2023-02-04T05:13:08.453Z,8.00
2023-02-04T05:15:36.727Z,8.00
2023-02-04T05:18:04.787Z,7.90
2023-02-04T05:20:33.125Z,7.90
2023-02-04T05:23:03.105Z,8.00
2023-02-04T05:25:31.939Z,8.00
2023-02-04T05:28:01.253Z,8.00
2023-02-04T05:30:29.364Z,7.90
2023-02-04T05:32:57.471Z,7.90
2023-02-04T05:35:25.566Z,8.00
2023-02-04T05:37:53.451Z,7.90
2023-02-04T05:40:21.525Z,7.90
2023-02-04T05:42:49.403Z,8.00
2023-02-04T05:45:19.789Z,8.00
2023-02-04T05:47:47.824Z,8.00
2023-02-04T05:50:16.243Z,8.00
2023-02-04T05:52:44.087Z,7.90
2023-02-04T05:55:13.028Z,8.00
2023-02-04T05:57:41.174Z,7.90
2023-02-04T06:00:10.474Z,7.90
2023-02-04T06:02:39.759Z,7.90
2023-02-04T06:05:08.039Z,7.90
2023-02-04T06:07:35.949Z,7.90
2023-02-04T06:10:03.981Z,7.90
2023-02-04T06:12:31.977Z,7.90
2023-02-04T06:14:59.897Z,7.90
2023-02-04T06:17:27.812Z,7.90
2023-02-04T06:19:57.126Z,7.90
2023-02-04T06:22:26.058Z,7.90
2023-02-04T06:24:53.898Z,7.90
2023-02-04T06:27:23.461Z,7.90
2023-02-04T06:29:51.730Z,7.90
2023-02-04T06:32:20.056Z,7.90
2023-02-04T06:34:48.304Z,7.90
2023-02-04T06:37:17.751Z,7.90
2023-02-04T06:39:45.980Z,7.90
2023-02-04T06:42:13.893Z,7.90
2023-02-04T06:44:41.833Z,7.80
2023-02-04T06:47:09.787Z,7.80
2023-02-04T06:49:37.856Z,7.90
2023-02-04T06:52:06.366Z,7.90
2023-02-04T06:54:35.632Z,7.90
2023-02-04T06:57:06.685Z,7.80
2023-02-04T06:59:35.008Z,7.80
2023-02-04T07:02:02.966Z,7.90
2023-02-04T07:04:30.791Z,7.80
2023-02-04T07:06:58.799Z,7.80
2023-02-04T07:09:30.177Z,7.90
2023-02-04T07:11:59.470Z,7.80
2023-02-04T07:14:27.324Z,7.90
2023-02-04T07:16:58.091Z,7.80
2023-02-04T07:19:26.175Z,7.90
2023-02-04T07:21:57.307Z,7.90
2023-02-04T07:24:25.378Z,7.90
2023-02-04T07:26:53.403Z,7.90
2023-02-04T07:29:26.049Z,7.90
2023-02-04T07:31:54.319Z,7.90
2023-02-04T07:34:22.605Z,7.90
2023-02-04T07:36:51.891Z,8.00
2023-02-04T07:39:19.791Z,7.90
2023-02-04T07:41:47.734Z,8.00
2023-02-04T07:44:15.627Z,7.90
2023-02-04T07:46:44.951Z,7.90
2023-02-04T07:49:12.835Z,7.90
2023-02-04T07:51:40.746Z,7.90
2023-02-04T07:54:08.610Z,7.90
2023-02-04T07:56:36.519Z,7.90
2023-02-04T07:59:04.436Z,7.90
2023-02-04T08:01:32.378Z,7.90
2023-02-04T08:04:01.656Z,7.90
2023-02-04T08:06:29.589Z,8.00
2023-02-04T08:08:57.478Z,8.00
2023-02-04T08:11:26.974Z,8.00
2023-02-04T08:13:54.896Z,8.00
2023-02-04T08:16:23.132Z,8.10
2023-02-04T08:18:51.160Z,8.10
2023-02-04T08:21:20.359Z,8.10
2023-02-04T08:23:48.446Z,8.10
2023-02-04T08:26:16.429Z,8.10
2023-02-04T08:28:44.281Z,8.20
2023-02-04T08:31:12.692Z,8.20
2023-02-04T08:33:41.106Z,8.20
2023-02-04T08:36:09.826Z,8.20
2023-02-04T08:38:40.528Z,8.20
2023-02-04T08:41:08.625Z,8.20
2023-02-04T08:43:36.890Z,8.30
2023-02-04T08:46:05.052Z,8.30
2023-02-04T08:48:32.932Z,8.30
2023-02-04T08:51:00.835Z,8.40
2023-02-04T08:53:28.705Z,8.40
2023-02-04T08:55:58.001Z,8.50
2023-02-04T08:58:25.878Z,8.50
2023-02-04T09:00:53.768Z,8.60
2023-02-04T09:03:21.657Z,8.70
2023-02-04T09:05:49.571Z,8.70
2023-02-04T09:08:17.493Z,8.70
2023-02-04T09:10:45.335Z,8.70
2023-02-04T09:13:14.718Z,8.70
2023-02-04T09:15:42.739Z,8.70
2023-02-04T09:18:16.413Z,8.80
2023-02-04T09:20:44.711Z,8.80
2023-02-04T09:23:13.404Z,8.80
2023-02-04T09:25:42.164Z,8.90
2023-02-04T09:28:11.598Z,8.80
2023-02-04T09:30:42.094Z,8.90
2023-02-04T09:33:11.654Z,8.80
2023-02-04T09:35:39.614Z,8.90
2023-02-04T09:38:07.686Z,8.90
2023-02-04T09:40:38.724Z,8.90
2023-02-04T09:43:07.292Z,8.90
2023-02-04T09:45:37.354Z,8.90
2023-02-04T09:48:10.082Z,8.90
2023-02-04T09:50:38.304Z,8.80
2023-02-04T09:53:08.439Z,8.80
2023-02-04T09:55:40.191Z,8.80
2023-02-04T09:58:16.066Z,8.80
2023-02-04T10:00:44.324Z,8.80
2023-02-04T10:03:17.638Z,8.90
2023-02-04T10:05:47.094Z,8.90
2023-02-04T10:08:17.036Z,8.90
2023-02-04T10:10:46.322Z,8.90
2023-02-04T10:13:19.472Z,8.90
2023-02-04T10:15:49.493Z,9.00
2023-02-04T10:18:26.237Z,9.00
2023-02-04T10:20:57.462Z,9.10
2023-02-04T10:23:25.398Z,9.20
2023-02-04T10:25:53.322Z,9.40
2023-02-04T10:28:21.236Z,9.80
2023-02-04T10:30:49.155Z,10.30
2023-02-04T10:33:25.717Z,11.00
2023-02-04T10:35:55.407Z,11.50
2023-02-04T10:38:24.144Z,11.90
2023-02-04T10:41:02.265Z,12.10
2023-02-04T10:43:30.288Z,12.20
2023-02-04T10:46:00.673Z,12.20
2023-02-04T10:48:31.057Z,12.20
2023-02-04T10:50:59.594Z,11.90
2023-02-04T10:53:45.613Z,11.80
2023-02-04T10:56:17.697Z,11.70
2023-02-04T10:58:45.654Z,11.60
2023-02-04T11:01:15.452Z,11.70
2023-02-04T11:03:47.927Z,11.70
2023-02-04T11:06:21.305Z,11.60
2023-02-04T11:08:51.529Z,11.50
2023-02-04T11:11:21.918Z,11.40
2023-02-04T11:14:00.993Z,11.20
2023-02-04T11:16:30.439Z,11.00
2023-02-04T11:19:01.580Z,10.90
2023-02-04T11:21:42.374Z,10.70
2023-02-04T11:24:25.762Z,10.60
2023-02-04T11:27:05.652Z,10.50
2023-02-04T11:29:37.983Z,10.30
2023-02-04T11:32:07.991Z,10.30
2023-02-04T11:35:07.476Z,10.20
2023-02-04T11:37:40.737Z,10.10
2023-02-04T11:40:24.374Z,10.20
2023-02-04T11:42:58.115Z,10.20
2023-02-04T11:45:30.281Z,10.20
2023-02-04T11:48:00.950Z,10.20
2023-02-04T11:50:33.329Z,10.20
2023-02-04T11:53:02.924Z,10.10
2023-02-04T11:55:32.196Z,10.20
2023-02-04T11:58:00.336Z,10.20
2023-02-04T12:00:31.504Z,10.20
2023-02-04T12:03:01.762Z,10.20
2023-02-04T12:05:42.877Z,10.30
2023-02-04T12:08:15.273Z,10.50
2023-02-04T12:10:50.337Z,10.60
2023-02-04T12:13:20.424Z,10.70
2023-02-04T12:15:56.820Z,10.80
2023-02-04T12:18:24.786Z,10.90
2023-02-04T12:20:54.217Z,10.90
2023-02-04T12:23:22.080Z,11.00
2023-02-04T12:25:50.195Z,11.20
2023-02-04T12:28:18.337Z,11.40
2023-02-04T12:30:46.313Z,11.70
2023-02-04T12:33:15.148Z,12.00
2023-02-04T12:35:43.492Z,12.70
2023-02-04T12:38:12.863Z,13.50
2023-02-04T12:40:40.997Z,13.90
2023-02-04T12:43:08.988Z,13.90
2023-02-04T12:45:37.792Z,13.80
2023-02-04T12:48:05.957Z,14.30
2023-02-04T12:50:33.886Z,15.20
2023-02-04T12:53:01.825Z,16.30
2023-02-04T12:55:31.532Z,16.50
2023-02-04T12:57:59.818Z,16.30
2023-02-04T13:00:28.384Z,15.90
2023-02-04T13:02:58.841Z,15.40
2023-02-04T13:05:27.323Z,15.00
2023-02-04T13:07:55.490Z,14.60
2023-02-04T13:10:24.002Z,14.20
2023-02-04T13:12:53.274Z,13.80
2023-02-04T13:15:21.280Z,13.40
2023-02-04T13:17:49.152Z,12.90
2023-02-04T13:20:17.122Z,12.50
2023-02-04T13:22:45.046Z,12.30
2023-02-04T13:25:13.161Z,12.20
2023-02-04T13:27:41.341Z,12.10
2023-02-04T13:30:14.811Z,12.10
2023-02-04T13:32:43.498Z,12.00
2023-02-04T13:35:11.496Z,11.90
2023-02-04T13:37:39.724Z,11.70
2023-02-04T13:40:09.493Z,11.60
2023-02-04T13:42:37.468Z,11.40
2023-02-04T13:45:07.670Z,11.20
2023-02-04T13:47:36.968Z,11.00
2023-02-04T13:50:05.174Z,10.80
2023-02-04T13:52:34.369Z,10.70
2023-02-04T13:55:02.451Z,10.50
2023-02-04T13:57:30.971Z,10.40
2023-02-04T13:59:58.954Z,10.30
2023-02-04T14:02:29.048Z,10.10
2023-02-04T14:04:58.692Z,10.10
2023-02-04T14:07:26.611Z,10.10
2023-02-04T14:09:54.541Z,10.10
2023-02-04T14:12:22.412Z,10.20
2023-02-04T14:14:50.328Z,10.30
2023-02-04T14:17:18.232Z,10.40
2023-02-04T14:19:46.203Z,10.40
2023-02-04T14:22:15.506Z,10.40
2023-02-04T14:24:44.288Z,10.50
2023-02-04T14:27:12.538Z,10.50
2023-02-04T14:29:40.583Z,10.50
2023-02-04T14:32:08.485Z,10.50
2023-02-04T14:34:36.437Z,10.40
2023-02-04T14:37:04.394Z,10.40
2023-02-04T14:39:33.647Z,10.30
2023-02-04T14:42:04.354Z,10.20
2023-02-04T14:44:32.968Z,10.10
2023-02-04T14:47:00.875Z,10.10
2023-02-04T14:49:28.793Z,10.00
2023-02-04T14:51:57.165Z,9.90
2023-02-04T14:54:25.191Z,9.90
2023-02-04T14:56:54.548Z,9.90
2023-02-04T14:59:22.467Z,9.90
2023-02-04T15:01:50.381Z,9.90
2023-02-04T15:04:19.105Z,9.90
2023-02-04T15:06:47.019Z,9.90
2023-02-04T15:09:14.979Z,9.80
2023-02-04T15:11:42.987Z,9.80
2023-02-04T15:14:12.272Z,9.70
2023-02-04T15:16:42.008Z,9.60
2023-02-04T15:19:09.975Z,9.50
2023-02-04T15:21:38.422Z,9.50
2023-02-04T15:24:06.493Z,9.40
2023-02-04T15:26:34.403Z,9.30
2023-02-04T15:29:02.744Z,9.30
2023-02-04T15:31:32.468Z,9.30
2023-02-04T15:34:01.093Z,9.30
2023-02-04T15:36:29.087Z,9.20
2023-02-04T15:38:57.013Z,9.20
2023-02-04T15:41:24.976Z,9.10
2023-02-04T15:43:53.025Z,9.00
2023-02-04T15:46:20.955Z,8.90
2023-02-04T15:48:50.275Z,8.80
2023-02-04T15:51:18.269Z,8.70
2023-02-04T15:53:46.151Z,8.70
2023-02-04T15:56:14.034Z,8.60
2023-02-04T15:58:41.938Z,8.50
2023-02-04T16:01:09.910Z,8.50
2023-02-04T16:03:37.989Z,8.40
2023-02-04T16:06:07.664Z,8.40
2023-02-04T16:08:35.540Z,8.40
2023-02-04T16:11:04.798Z,8.30
2023-02-04T16:13:33.825Z,8.30
2023-02-04T16:16:01.697Z,8.30
2023-02-04T16:18:29.628Z,8.20
2023-02-04T16:20:57.690Z,8.20
2023-02-04T16:23:26.925Z,8.20
2023-02-04T16:25:54.799Z,8.10
2023-02-04T16:28:22.809Z,8.00
2023-02-04T16:30:50.735Z,7.90
2023-02-04T16:33:18.839Z,7.80
2023-02-04T16:36:04.421Z,7.70
2023-02-04T16:38:33.727Z,7.60
2023-02-04T16:41:01.687Z,7.60
2023-02-04T16:43:29.639Z,7.50
2023-02-04T16:45:57.584Z,7.50
2023-02-04T16:48:26.164Z,7.40
2023-02-04T16:50:54.070Z,7.30
2023-02-04T16:53:22.093Z,7.30
2023-02-04T16:55:51.359Z,7.30
2023-02-04T16:58:19.788Z,7.30
2023-02-04T17:00:48.552Z,7.30
2023-02-04T17:03:16.468Z,7.30
2023-02-04T17:05:44.840Z,7.40
2023-02-04T17:08:15.008Z,7.40
2023-02-04T17:11:00.316Z,7.40
2023-02-04T17:13:30.792Z,7.40
2023-02-04T17:16:01.068Z,7.40
2023-02-04T17:18:30.224Z,7.40
2023-02-04T17:20:58.625Z,7.40
2023-02-04T17:23:28.326Z,7.40
2023-02-04T17:25:56.441Z,7.30
2023-02-04T17:28:26.151Z,7.30
2023-02-04T17:30:55.703Z,7.20
2023-02-04T17:33:23.712Z,7.10
2023-02-04T17:35:51.629Z,7.00
2023-02-04T17:38:19.536Z,6.90
2023-02-04T17:40:47.696Z,6.90
2023-02-04T17:43:15.521Z,6.80
2023-02-04T17:45:43.591Z,6.70
2023-02-04T17:48:12.805Z,6.60
2023-02-04T17:50:40.806Z,6.60
2023-02-04T17:53:10.304Z,6.50
2023-02-04T17:55:39.961Z,6.50
2023-02-04T17:58:14.555Z,6.40
2023-02-04T18:00:43.869Z,6.40
2023-02-04T18:03:15.604Z,6.40
2023-02-04T18:05:46.667Z,6.40
2023-02-04T18:08:17.007Z,6.40
2023-02-04T18:10:46.742Z,6.40
2023-02-04T18:13:17.326Z,6.40
2023-02-04T18:15:48.204Z,6.40
2023-02-04T18:18:22.313Z,6.30
2023-02-04T18:20:58.560Z,6.30
2023-02-04T18:23:28.333Z,6.20
2023-02-04T18:25:57.139Z,6.20
2023-02-04T18:28:25.054Z,6.20
2023-02-04T18:30:55.271Z,6.10
2023-02-04T18:33:27.011Z,6.10
2023-02-04T18:36:00.900Z,6.00
2023-02-04T18:38:32.186Z,6.00
2023-02-04T18:41:10.184Z,5.90
2023-02-04T18:43:38.693Z,5.80
2023-02-04T18:46:18.780Z,5.80
2023-02-04T18:49:07.363Z,5.70
2023-02-04T18:51:40.106Z,5.60
2023-02-04T18:54:36.762Z,5.50
2023-02-04T18:57:38.540Z,5.40
2023-02-04T19:00:28.518Z,5.30
2023-02-04T19:02:59.134Z,5.30
2023-02-04T19:05:35.382Z,5.30
2023-02-04T19:08:26.198Z,5.30
2023-02-04T19:10:56.090Z,5.30
2023-02-04T19:13:26.728Z,5.30
2023-02-04T19:16:06.201Z,5.30
2023-02-04T19:18:38.573Z,5.20
2023-02-04T19:21:25.769Z,5.20
2023-02-04T19:23:59.751Z,5.20
2023-02-04T19:26:34.630Z,5.10
2023-02-04T19:29:22.913Z,5.20
2023-02-04T19:31:51.592Z,5.10
2023-02-04T19:34:24.978Z,5.10
2023-02-04T19:36:55.604Z,5.00
2023-02-04T19:39:35.315Z,5.00
2023-02-04T19:42:16.345Z,5.00
2023-02-04T19:44:46.267Z,5.00
2023-02-04T19:47:23.961Z,4.90
2023-02-04T19:49:52.459Z,4.90
2023-02-04T19:52:35.837Z,4.80
2023-02-04T19:55:29.375Z,4.80
2023-02-04T19:58:01.017Z,4.70
2023-02-04T20:00:46.747Z,4.70
2023-02-04T20:03:27.602Z,4.70
2023-02-04T20:05:58.462Z,4.70
2023-02-04T20:08:45.145Z,4.70
2023-02-04T20:11:58.022Z,4.60
2023-02-04T20:14:29.552Z,4.60
2023-02-04T20:17:00.126Z,4.60
2023-02-04T20:19:35.314Z,4.60
2023-02-04T20:22:36.657Z,4.60
2023-02-04T20:25:37.178Z,4.50
2023-02-04T20:28:30.122Z,4.50
2023-02-04T20:31:01.051Z,4.40
2023-02-04T20:33:41.513Z,4.50
2023-02-04T20:36:38.442Z,4.50
2023-02-04T20:39:42.358Z,4.50
2023-02-04T20:42:27.266Z,4.60
2023-02-04T20:44:55.715Z,4.60
2023-02-04T20:47:25.758Z,4.70
2023-02-04T20:49:56.199Z,4.60
2023-02-04T20:53:02.760Z,4.70
2023-02-04T20:55:32.345Z,4.60
2023-02-04T20:58:15.185Z,4.60
2023-02-04T21:00:43.853Z,4.60
2023-02-04T21:03:22.363Z,4.50
2023-02-04T21:05:51.208Z,4.50
2023-02-04T21:08:40.601Z,4.50
2023-02-04T21:11:08.987Z,4.50
2023-02-04T21:13:38.948Z,4.50
2023-02-04T21:16:09.071Z,4.40
2023-02-04T21:18:37.508Z,4.30
2023-02-04T21:21:07.293Z,4.30
2023-02-04T21:23:36.138Z,4.30
2023-02-04T21:26:04.129Z,4.20
2023-02-04T21:28:32.704Z,4.20
2023-02-04T21:31:02.299Z,4.10
2023-02-04T21:33:30.365Z,4.10
2023-02-04T21:35:58.287Z,4.00
2023-02-04T21:38:26.214Z,4.00
2023-02-04T21:40:54.056Z,4.10
2023-02-04T21:43:21.891Z,4.00
2023-02-04T21:45:49.790Z,4.00
2023-02-04T21:48:19.178Z,3.80
2023-02-04T21:50:47.100Z,3.90
2023-02-04T21:53:14.979Z,3.80
2023-02-04T21:55:42.958Z,3.90
2023-02-04T21:58:10.865Z,3.90
2023-02-04T22:00:38.806Z,3.90
2023-02-04T22:03:10.287Z,3.90
2023-02-04T22:05:39.670Z,3.90
2023-02-04T22:08:07.514Z,3.90
2023-02-04T22:10:35.409Z,3.90
2023-02-04T22:13:20.932Z,3.90
2023-02-04T22:15:48.972Z,3.90
2023-02-04T22:18:16.889Z,3.90
2023-02-04T22:20:46.215Z,3.90
2023-02-04T22:23:14.559Z,3.90
2023-02-04T22:25:42.474Z,3.90
2023-02-04T22:28:10.516Z,3.90
2023-02-04T22:30:38.839Z,3.90
2023-02-04T22:33:07.531Z,4.00
2023-02-04T22:35:36.852Z,4.00
2023-02-04T22:38:06.252Z,4.00
2023-02-04T22:40:34.148Z,4.00
2023-02-04T22:43:02.063Z,3.90
2023-02-04T22:45:29.964Z,3.90
2023-02-04T22:47:57.899Z,3.90
2023-02-04T22:50:25.884Z,3.90
2023-02-04T22:52:53.834Z,3.90
2023-02-04T22:55:23.060Z,3.90
2023-02-04T22:57:50.971Z,4.00
2023-02-04T23:00:19.145Z,4.00
2023-02-04T23:02:47.014Z,4.10
2023-02-04T23:05:14.930Z,4.00
2023-02-04T23:07:42.925Z,4.00
2023-02-04T23:10:11.152Z,4.00
2023-02-04T23:12:40.411Z,4.00
2023-02-04T23:15:09.118Z,3.90
2023-02-04T23:17:37.041Z,3.90
2023-02-04T23:20:05.704Z,3.80
2023-02-04T23:22:34.037Z,3.80
2023-02-04T23:25:01.988Z,3.70
2023-02-04T23:27:29.914Z,3.60
2023-02-04T23:29:59.138Z,3.60
2023-02-04T23:32:28.558Z,3.50
2023-02-04T23:34:56.479Z,3.40
2023-02-04T23:37:24.485Z,3.30
2023-02-04T23:39:55.258Z,3.40
2023-02-04T23:42:23.114Z,3.40
2023-02-04T23:44:51.113Z,3.40
2023-02-04T23:47:20.379Z,3.40
2023-02-04T23:49:48.266Z,3.50
2023-02-04T23:52:16.611Z,3.50
2023-02-04T23:54:44.471Z,3.50
2023-02-04T23:57:12.383Z,3.50
2023-02-04T23:59:42.117Z,3.50
